sensor_id;sensor_type;location;lat;lon;timestamp;P1;durP1;ratioP1;P2;durP2;ratioP2
6388;SDS011;3227;42.654;23.360;2023-02-15T00:01:38;37.53;;;24.80;;
6388;SDS011;3227;42.654;23.360;2023-02-15T00:04:06;39.00;;;25.20;;
6388;SDS011;3227;42.654;23.360;2023-02-15T00:06:33;41.10;;;25.40;;
6388;SDS011;3227;42.654;23.360;2023-02-15T00:09:00;38.57;;;24.60;;
6388;SDS011;3227;42.654;23.360;2023-02-15T00:11:27;39.00;;;25.30;;
6388;SDS011;3227;42.654;23.360;2023-02-15T00:14:08;40.97;;;24.17;;
6388;SDS011;3227;42.654;23.360;2023-02-15T00:16:36;38.07;;;25.13;;
6388;SDS011;3227;42.654;23.360;2023-02-15T00:19:05;41.57;;;24.93;;
6388;SDS011;3227;42.654;23.360;2023-02-15T00:21:33;38.37;;;25.70;;
6388;SDS011;3227;42.654;23.360;2023-02-15T00:24:02;41.40;;;26.80;;
6388;SDS011;3227;42.654;23.360;2023-02-15T00:26:30;40.53;;;24.53;;
6388;SDS011;3227;42.654;23.360;2023-02-15T00:28:58;42.33;;;26.27;;
6388;SDS011;3227;42.654;23.360;2023-02-15T00:31:25;42.50;;;25.70;;
6388;SDS011;3227;42.654;23.360;2023-02-15T00:33:54;38.17;;;25.10;;
6388;SDS011;3227;42.654;23.360;2023-02-15T00:36:21;41.30;;;25.50;;
6388;SDS011;3227;42.654;23.360;2023-02-15T00:38:47;39.57;;;25.57;;
6388;SDS011;3227;42.654;23.360;2023-02-15T00:41:14;38.00;;;25.43;;
6388;SDS011;3227;42.654;23.360;2023-02-15T00:43:41;37.50;;;24.97;;
6388;SDS011;3227;42.654;23.360;2023-02-15T00:46:08;37.90;;;23.57;;
6388;SDS011;3227;42.654;23.360;2023-02-15T00:48:34;41.43;;;25.17;;
6388;SDS011;3227;42.654;23.360;2023-02-15T00:51:02;36.50;;;23.10;;
6388;SDS011;3227;42.654;23.360;2023-02-15T00:53:29;35.17;;;23.47;;
6388;SDS011;3227;42.654;23.360;2023-02-15T00:55:57;38.40;;;24.33;;
6388;SDS011;3227;42.654;23.360;2023-02-15T00:58:24;37.57;;;23.87;;
6388;SDS011;3227;42.654;23.360;2023-02-15T01:00:51;35.80;;;23.53;;
6388;SDS011;3227;42.654;23.360;2023-02-15T01:03:19;37.00;;;23.87;;
6388;SDS011;3227;42.654;23.360;2023-02-15T01:05:47;38.30;;;24.67;;
6388;SDS011;3227;42.654;23.360;2023-02-15T01:08:16;36.77;;;24.37;;
6388;SDS011;3227;42.654;23.360;2023-02-15T01:10:43;40.20;;;25.57;;
6388;SDS011;3227;42.654;23.360;2023-02-15T01:13:12;34.60;;;23.13;;
6388;SDS011;3227;42.654;23.360;2023-02-15T01:15:40;35.27;;;23.00;;
6388;SDS011;3227;42.654;23.360;2023-02-15T01:18:07;37.80;;;23.73;;
6388;SDS011;3227;42.654;23.360;2023-02-15T01:20:34;36.57;;;23.53;;
6388;SDS011;3227;42.654;23.360;2023-02-15T01:23:03;34.93;;;23.73;;
6388;SDS011;3227;42.654;23.360;2023-02-15T01:25:33;36.30;;;23.67;;
6388;SDS011;3227;42.654;23.360;2023-02-15T01:28:01;35.50;;;23.43;;
6388;SDS011;3227;42.654;23.360;2023-02-15T01:30:28;38.00;;;24.90;;
6388;SDS011;3227;42.654;23.360;2023-02-15T01:32:55;36.63;;;23.00;;
6388;SDS011;3227;42.654;23.360;2023-02-15T01:35:22;38.27;;;24.17;;
6388;SDS011;3227;42.654;23.360;2023-02-15T01:37:49;34.60;;;23.53;;
6388;SDS011;3227;42.654;23.360;2023-02-15T01:40:17;37.17;;;24.20;;
6388;SDS011;3227;42.654;23.360;2023-02-15T01:42:49;36.27;;;24.30;;
6388;SDS011;3227;42.654;23.360;2023-02-15T01:45:18;35.43;;;22.67;;
6388;SDS011;3227;42.654;23.360;2023-02-15T01:47:49;37.57;;;23.37;;
6388;SDS011;3227;42.654;23.360;2023-02-15T01:50:21;35.97;;;23.60;;
6388;SDS011;3227;42.654;23.360;2023-02-15T01:52:55;36.03;;;23.93;;
6388;SDS011;3227;42.654;23.360;2023-02-15T01:55:24;33.93;;;22.47;;
6388;SDS011;3227;42.654;23.360;2023-02-15T01:57:54;34.73;;;23.07;;
6388;SDS011;3227;42.654;23.360;2023-02-15T02:00:21;38.80;;;23.93;;
6388;SDS011;3227;42.654;23.360;2023-02-15T02:02:49;35.17;;;22.77;;
6388;SDS011;3227;42.654;23.360;2023-02-15T02:05:19;36.93;;;23.47;;
6388;SDS011;3227;42.654;23.360;2023-02-15T02:07:47;36.67;;;22.97;;
6388;SDS011;3227;42.654;23.360;2023-02-15T02:10:18;36.53;;;23.60;;
6388;SDS011;3227;42.654;23.360;2023-02-15T02:12:48;36.10;;;22.97;;
6388;SDS011;3227;42.654;23.360;2023-02-15T02:15:19;36.43;;;22.37;;
6388;SDS011;3227;42.654;23.360;2023-02-15T02:17:54;33.37;;;22.47;;
6388;SDS011;3227;42.654;23.360;2023-02-15T02:20:32;34.73;;;22.57;;
6388;SDS011;3227;42.654;23.360;2023-02-15T02:23:22;35.87;;;22.77;;
6388;SDS011;3227;42.654;23.360;2023-02-15T02:29:26;33.67;;;21.67;;
6388;SDS011;3227;42.654;23.360;2023-02-15T02:32:17;37.33;;;23.83;;
6388;SDS011;3227;42.654;23.360;2023-02-15T02:35:07;34.33;;;22.47;;
6388;SDS011;3227;42.654;23.360;2023-02-15T02:37:42;34.07;;;23.00;;
6388;SDS011;3227;42.654;23.360;2023-02-15T02:40:16;34.83;;;22.57;;
6388;SDS011;3227;42.654;23.360;2023-02-15T02:42:53;34.13;;;22.50;;
6388;SDS011;3227;42.654;23.360;2023-02-15T02:45:26;33.17;;;21.90;;
6388;SDS011;3227;42.654;23.360;2023-02-15T02:47:59;35.30;;;22.10;;
6388;SDS011;3227;42.654;23.360;2023-02-15T02:50:31;36.17;;;22.53;;
6388;SDS011;3227;42.654;23.360;2023-02-15T02:52:58;34.50;;;22.17;;
6388;SDS011;3227;42.654;23.360;2023-02-15T02:55:27;35.70;;;23.33;;
6388;SDS011;3227;42.654;23.360;2023-02-15T02:57:58;32.63;;;22.33;;
6388;SDS011;3227;42.654;23.360;2023-02-15T03:00:30;32.87;;;22.30;;
6388;SDS011;3227;42.654;23.360;2023-02-15T03:03:02;33.43;;;20.33;;
6388;SDS011;3227;42.654;23.360;2023-02-15T03:05:37;33.70;;;21.90;;
6388;SDS011;3227;42.654;23.360;2023-02-15T03:08:07;32.03;;;20.57;;
6388;SDS011;3227;42.654;23.360;2023-02-15T03:10:35;32.70;;;20.97;;
6388;SDS011;3227;42.654;23.360;2023-02-15T03:13:04;35.70;;;21.67;;
6388;SDS011;3227;42.654;23.360;2023-02-15T03:15:32;32.10;;;21.63;;
6388;SDS011;3227;42.654;23.360;2023-02-15T03:18:16;35.50;;;21.97;;
6388;SDS011;3227;42.654;23.360;2023-02-15T03:20:47;31.30;;;20.37;;
6388;SDS011;3227;42.654;23.360;2023-02-15T03:23:17;30.33;;;19.90;;
6388;SDS011;3227;42.654;23.360;2023-02-15T03:25:50;31.30;;;21.57;;
6388;SDS011;3227;42.654;23.360;2023-02-15T03:28:23;32.43;;;20.57;;
6388;SDS011;3227;42.654;23.360;2023-02-15T03:30:54;31.13;;;21.23;;
6388;SDS011;3227;42.654;23.360;2023-02-15T03:33:24;33.00;;;20.77;;
6388;SDS011;3227;42.654;23.360;2023-02-15T03:35:55;32.27;;;20.57;;
6388;SDS011;3227;42.654;23.360;2023-02-15T03:38:29;30.43;;;20.90;;
6388;SDS011;3227;42.654;23.360;2023-02-15T03:41:00;33.73;;;21.30;;
6388;SDS011;3227;42.654;23.360;2023-02-15T03:43:40;31.30;;;19.90;;
6388;SDS011;3227;42.654;23.360;2023-02-15T03:46:13;30.67;;;20.60;;
6388;SDS011;3227;42.654;23.360;2023-02-15T03:51:36;27.57;;;19.43;;
6388;SDS011;3227;42.654;23.360;2023-02-15T03:54:07;33.77;;;20.80;;
6388;SDS011;3227;42.654;23.360;2023-02-15T03:56:36;30.73;;;19.93;;
6388;SDS011;3227;42.654;23.360;2023-02-15T03:59:06;30.83;;;20.00;;
6388;SDS011;3227;42.654;23.360;2023-02-15T04:01:54;29.50;;;19.57;;
6388;SDS011;3227;42.654;23.360;2023-02-15T04:04:29;30.03;;;19.47;;
6388;SDS011;3227;42.654;23.360;2023-02-15T04:07:00;29.83;;;19.73;;
6388;SDS011;3227;42.654;23.360;2023-02-15T04:09:28;31.80;;;19.87;;
6388;SDS011;3227;42.654;23.360;2023-02-15T04:12:12;29.93;;;19.93;;
6388;SDS011;3227;42.654;23.360;2023-02-15T04:14:39;32.57;;;20.03;;
6388;SDS011;3227;42.654;23.360;2023-02-15T04:17:23;30.13;;;20.00;;
6388;SDS011;3227;42.654;23.360;2023-02-15T04:19:50;31.43;;;19.87;;
6388;SDS011;3227;42.654;23.360;2023-02-15T04:22:35;28.90;;;19.33;;
6388;SDS011;3227;42.654;23.360;2023-02-15T04:25:19;32.60;;;20.47;;
6388;SDS011;3227;42.654;23.360;2023-02-15T04:27:48;31.07;;;19.87;;
6388;SDS011;3227;42.654;23.360;2023-02-15T04:30:17;33.60;;;20.90;;
6388;SDS011;3227;42.654;23.360;2023-02-15T04:32:45;28.33;;;20.10;;
6388;SDS011;3227;42.654;23.360;2023-02-15T04:35:12;30.63;;;20.07;;
6388;SDS011;3227;42.654;23.360;2023-02-15T04:37:41;32.63;;;20.57;;
6388;SDS011;3227;42.654;23.360;2023-02-15T04:40:09;33.00;;;21.70;;
6388;SDS011;3227;42.654;23.360;2023-02-15T04:42:37;31.87;;;20.27;;
6388;SDS011;3227;42.654;23.360;2023-02-15T04:45:04;32.63;;;20.37;;
6388;SDS011;3227;42.654;23.360;2023-02-15T04:47:32;31.13;;;20.70;;
6388;SDS011;3227;42.654;23.360;2023-02-15T04:49:58;30.80;;;20.43;;
6388;SDS011;3227;42.654;23.360;2023-02-15T04:52:25;32.47;;;21.33;;
6388;SDS011;3227;42.654;23.360;2023-02-15T04:54:54;32.80;;;21.20;;
6388;SDS011;3227;42.654;23.360;2023-02-15T04:57:20;31.57;;;20.27;;
6388;SDS011;3227;42.654;23.360;2023-02-15T04:59:47;32.00;;;21.53;;
6388;SDS011;3227;42.654;23.360;2023-02-15T05:02:14;27.63;;;18.40;;
6388;SDS011;3227;42.654;23.360;2023-02-15T05:04:41;31.40;;;20.33;;
6388;SDS011;3227;42.654;23.360;2023-02-15T05:07:23;30.23;;;20.47;;
6388;SDS011;3227;42.654;23.360;2023-02-15T05:09:49;34.03;;;20.80;;
6388;SDS011;3227;42.654;23.360;2023-02-15T05:12:17;34.17;;;21.00;;
6388;SDS011;3227;42.654;23.360;2023-02-15T05:14:44;30.37;;;19.87;;
6388;SDS011;3227;42.654;23.360;2023-02-15T05:17:11;29.33;;;20.20;;
6388;SDS011;3227;42.654;23.360;2023-02-15T05:19:38;34.47;;;20.77;;
6388;SDS011;3227;42.654;23.360;2023-02-15T05:22:04;31.53;;;20.63;;
6388;SDS011;3227;42.654;23.360;2023-02-15T05:24:31;31.77;;;20.30;;
6388;SDS011;3227;42.654;23.360;2023-02-15T05:27:15;33.63;;;21.90;;
6388;SDS011;3227;42.654;23.360;2023-02-15T05:30:01;32.87;;;21.03;;
6388;SDS011;3227;42.654;23.360;2023-02-15T05:32:28;34.33;;;20.87;;
6388;SDS011;3227;42.654;23.360;2023-02-15T05:34:55;32.23;;;20.57;;
6388;SDS011;3227;42.654;23.360;2023-02-15T05:37:22;31.17;;;20.57;;
6388;SDS011;3227;42.654;23.360;2023-02-15T05:39:49;33.17;;;21.07;;
6388;SDS011;3227;42.654;23.360;2023-02-15T05:42:15;30.47;;;20.20;;
6388;SDS011;3227;42.654;23.360;2023-02-15T05:44:42;30.87;;;20.37;;
6388;SDS011;3227;42.654;23.360;2023-02-15T05:47:15;34.10;;;20.63;;
6388;SDS011;3227;42.654;23.360;2023-02-15T05:49:42;31.17;;;19.83;;
6388;SDS011;3227;42.654;23.360;2023-02-15T05:52:09;30.73;;;20.07;;
6388;SDS011;3227;42.654;23.360;2023-02-15T05:54:37;32.90;;;20.83;;
6388;SDS011;3227;42.654;23.360;2023-02-15T05:57:04;32.17;;;21.60;;
6388;SDS011;3227;42.654;23.360;2023-02-15T05:59:30;33.33;;;21.40;;
6388;SDS011;3227;42.654;23.360;2023-02-15T06:01:57;29.23;;;19.97;;
6388;SDS011;3227;42.654;23.360;2023-02-15T06:04:25;32.67;;;21.00;;
6388;SDS011;3227;42.654;23.360;2023-02-15T06:06:52;33.13;;;20.67;;
6388;SDS011;3227;42.654;23.360;2023-02-15T06:09:19;34.80;;;20.57;;
6388;SDS011;3227;42.654;23.360;2023-02-15T06:11:46;33.60;;;21.13;;
6388;SDS011;3227;42.654;23.360;2023-02-15T06:14:13;33.67;;;20.10;;
6388;SDS011;3227;42.654;23.360;2023-02-15T06:16:39;31.13;;;20.37;;
6388;SDS011;3227;42.654;23.360;2023-02-15T06:19:06;29.63;;;19.63;;
6388;SDS011;3227;42.654;23.360;2023-02-15T06:21:34;30.90;;;20.37;;
6388;SDS011;3227;42.654;23.360;2023-02-15T06:24:01;29.77;;;19.90;;
6388;SDS011;3227;42.654;23.360;2023-02-15T06:26:28;34.13;;;20.63;;
6388;SDS011;3227;42.654;23.360;2023-02-15T06:28:55;30.93;;;19.53;;
6388;SDS011;3227;42.654;23.360;2023-02-15T06:31:21;32.83;;;19.87;;
6388;SDS011;3227;42.654;23.360;2023-02-15T06:33:48;29.20;;;19.40;;
6388;SDS011;3227;42.654;23.360;2023-02-15T06:36:15;30.37;;;20.57;;
6388;SDS011;3227;42.654;23.360;2023-02-15T06:38:43;29.50;;;19.77;;
6388;SDS011;3227;42.654;23.360;2023-02-15T06:41:10;30.40;;;19.47;;
6388;SDS011;3227;42.654;23.360;2023-02-15T06:43:37;33.53;;;19.77;;
6388;SDS011;3227;42.654;23.360;2023-02-15T06:46:04;29.97;;;19.63;;
6388;SDS011;3227;42.654;23.360;2023-02-15T06:48:31;31.93;;;20.30;;
6388;SDS011;3227;42.654;23.360;2023-02-15T06:50:58;33.37;;;20.57;;
6388;SDS011;3227;42.654;23.360;2023-02-15T06:53:24;31.07;;;19.27;;
6388;SDS011;3227;42.654;23.360;2023-02-15T06:55:52;30.07;;;19.67;;
6388;SDS011;3227;42.654;23.360;2023-02-15T06:58:27;30.30;;;18.77;;
6388;SDS011;3227;42.654;23.360;2023-02-15T07:00:54;29.33;;;19.23;;
6388;SDS011;3227;42.654;23.360;2023-02-15T07:03:21;28.57;;;18.30;;
6388;SDS011;3227;42.654;23.360;2023-02-15T07:05:48;27.57;;;17.93;;
6388;SDS011;3227;42.654;23.360;2023-02-15T07:08:14;28.37;;;18.67;;
6388;SDS011;3227;42.654;23.360;2023-02-15T07:10:43;28.27;;;18.97;;
6388;SDS011;3227;42.654;23.360;2023-02-15T07:13:11;26.00;;;17.97;;
6388;SDS011;3227;42.654;23.360;2023-02-15T07:15:37;27.90;;;17.77;;
6388;SDS011;3227;42.654;23.360;2023-02-15T07:18:04;24.57;;;17.23;;
6388;SDS011;3227;42.654;23.360;2023-02-15T07:20:31;28.33;;;18.40;;
6388;SDS011;3227;42.654;23.360;2023-02-15T07:22:58;27.07;;;17.63;;
6388;SDS011;3227;42.654;23.360;2023-02-15T07:25:25;27.23;;;17.53;;
6388;SDS011;3227;42.654;23.360;2023-02-15T07:27:55;26.07;;;16.87;;
6388;SDS011;3227;42.654;23.360;2023-02-15T07:30:24;27.33;;;17.47;;
6388;SDS011;3227;42.654;23.360;2023-02-15T07:32:51;24.23;;;16.03;;
6388;SDS011;3227;42.654;23.360;2023-02-15T07:35:38;26.70;;;17.23;;
6388;SDS011;3227;42.654;23.360;2023-02-15T07:38:12;26.53;;;17.10;;
6388;SDS011;3227;42.654;23.360;2023-02-15T07:40:39;25.33;;;17.57;;
6388;SDS011;3227;42.654;23.360;2023-02-15T07:43:06;28.73;;;16.87;;
6388;SDS011;3227;42.654;23.360;2023-02-15T07:45:34;28.67;;;15.93;;
6388;SDS011;3227;42.654;23.360;2023-02-15T07:48:01;23.57;;;14.87;;
6388;SDS011;3227;42.654;23.360;2023-02-15T07:50:29;25.23;;;16.13;;
6388;SDS011;3227;42.654;23.360;2023-02-15T07:52:56;25.73;;;15.73;;
6388;SDS011;3227;42.654;23.360;2023-02-15T07:55:23;25.10;;;16.27;;
6388;SDS011;3227;42.654;23.360;2023-02-15T07:57:51;25.00;;;15.63;;
6388;SDS011;3227;42.654;23.360;2023-02-15T08:00:19;27.67;;;18.00;;
6388;SDS011;3227;42.654;23.360;2023-02-15T08:02:52;26.83;;;17.27;;
6388;SDS011;3227;42.654;23.360;2023-02-15T08:05:33;25.40;;;16.50;;
6388;SDS011;3227;42.654;23.360;2023-02-15T08:08:00;25.77;;;15.97;;
6388;SDS011;3227;42.654;23.360;2023-02-15T08:10:27;27.47;;;17.10;;
6388;SDS011;3227;42.654;23.360;2023-02-15T08:13:08;27.43;;;16.80;;
6388;SDS011;3227;42.654;23.360;2023-02-15T08:15:34;28.40;;;16.93;;
6388;SDS011;3227;42.654;23.360;2023-02-15T08:18:03;28.63;;;19.53;;
6388;SDS011;3227;42.654;23.360;2023-02-15T08:20:30;27.80;;;19.50;;
6388;SDS011;3227;42.654;23.360;2023-02-15T08:22:57;26.67;;;17.93;;
6388;SDS011;3227;42.654;23.360;2023-02-15T08:25:24;26.85;;;19.45;;
6388;SDS011;3227;42.654;23.360;2023-02-15T08:27:51;25.77;;;17.43;;
6388;SDS011;3227;42.654;23.360;2023-02-15T08:30:18;31.07;;;17.13;;
6388;SDS011;3227;42.654;23.360;2023-02-15T08:32:45;28.40;;;19.35;;
6388;SDS011;3227;42.654;23.360;2023-02-15T08:35:13;27.33;;;17.00;;
6388;SDS011;3227;42.654;23.360;2023-02-15T08:37:40;24.83;;;16.20;;
6388;SDS011;3227;42.654;23.360;2023-02-15T08:40:10;24.37;;;15.97;;
6388;SDS011;3227;42.654;23.360;2023-02-15T08:42:38;27.20;;;18.45;;
6388;SDS011;3227;42.654;23.360;2023-02-15T08:45:05;26.63;;;16.10;;
6388;SDS011;3227;42.654;23.360;2023-02-15T08:47:33;26.40;;;16.47;;
6388;SDS011;3227;42.654;23.360;2023-02-15T08:50:00;26.70;;;16.07;;
6388;SDS011;3227;42.654;23.360;2023-02-15T08:52:28;26.27;;;15.93;;
6388;SDS011;3227;42.654;23.360;2023-02-15T08:54:54;26.37;;;15.80;;
6388;SDS011;3227;42.654;23.360;2023-02-15T08:57:21;28.77;;;16.60;;
6388;SDS011;3227;42.654;23.360;2023-02-15T08:59:48;26.30;;;16.50;;
6388;SDS011;3227;42.654;23.360;2023-02-15T09:02:16;29.43;;;15.93;;
6388;SDS011;3227;42.654;23.360;2023-02-15T09:04:42;25.73;;;16.07;;
6388;SDS011;3227;42.654;23.360;2023-02-15T09:07:09;29.50;;;15.97;;
6388;SDS011;3227;42.654;23.360;2023-02-15T09:09:37;23.83;;;16.07;;
6388;SDS011;3227;42.654;23.360;2023-02-15T09:12:04;24.02;;;15.90;;
6388;SDS011;3227;42.654;23.360;2023-02-15T09:14:32;26.02;;;17.17;;
6388;SDS011;3227;42.654;23.360;2023-02-15T09:16:59;26.02;;;17.25;;
6388;SDS011;3227;42.654;23.360;2023-02-15T09:19:26;24.67;;;18.33;;
6388;SDS011;3227;42.654;23.360;2023-02-15T09:21:53;28.95;;;20.08;;
6388;SDS011;3227;42.654;23.360;2023-02-15T09:24:20;25.73;;;17.20;;
6388;SDS011;3227;42.654;23.360;2023-02-15T09:26:48;26.73;;;16.87;;
6388;SDS011;3227;42.654;23.360;2023-02-15T09:29:20;25.40;;;16.23;;
6388;SDS011;3227;42.654;23.360;2023-02-15T09:31:48;29.90;;;18.73;;
6388;SDS011;3227;42.654;23.360;2023-02-15T09:34:17;29.15;;;19.98;;
6388;SDS011;3227;42.654;23.360;2023-02-15T09:36:45;39.50;;;19.10;;
6388;SDS011;3227;42.654;23.360;2023-02-15T09:39:14;33.40;;;18.57;;
6388;SDS011;3227;42.654;23.360;2023-02-15T09:41:48;23.73;;;16.07;;
6388;SDS011;3227;42.654;23.360;2023-02-15T09:44:28;26.60;;;15.83;;
6388;SDS011;3227;42.654;23.360;2023-02-15T09:47:10;24.73;;;14.97;;
6388;SDS011;3227;42.654;23.360;2023-02-15T09:49:50;23.70;;;17.00;;
6388;SDS011;3227;42.654;23.360;2023-02-15T09:52:27;23.90;;;16.65;;
6388;SDS011;3227;42.654;23.360;2023-02-15T09:55:16;22.07;;;15.10;;
6388;SDS011;3227;42.654;23.360;2023-02-15T09:57:56;21.70;;;14.90;;
6388;SDS011;3227;42.654;23.360;2023-02-15T10:00:33;22.00;;;15.77;;
6388;SDS011;3227;42.654;23.360;2023-02-15T10:03:13;23.50;;;16.27;;
6388;SDS011;3227;42.654;23.360;2023-02-15T10:06:03;26.77;;;16.13;;
6388;SDS011;3227;42.654;23.360;2023-02-15T10:08:51;25.95;;;17.83;;
6388;SDS011;3227;42.654;23.360;2023-02-15T10:11:29;26.80;;;17.50;;
6388;SDS011;3227;42.654;23.360;2023-02-15T10:14:21;27.47;;;16.70;;
6388;SDS011;3227;42.654;23.360;2023-02-15T10:17:05;28.67;;;17.43;;
6388;SDS011;3227;42.654;23.360;2023-02-15T10:19:44;25.10;;;16.07;;
6388;SDS011;3227;42.654;23.360;2023-02-15T10:22:21;25.47;;;16.23;;
6388;SDS011;3227;42.654;23.360;2023-02-15T10:25:02;25.77;;;16.37;;
6388;SDS011;3227;42.654;23.360;2023-02-15T10:28:01;26.03;;;17.10;;
6388;SDS011;3227;42.654;23.360;2023-02-15T10:30:35;29.23;;;17.70;;
6388;SDS011;3227;42.654;23.360;2023-02-15T10:33:14;25.03;;;17.63;;
6388;SDS011;3227;42.654;23.360;2023-02-15T10:35:52;26.83;;;18.33;;
6388;SDS011;3227;42.654;23.360;2023-02-15T10:38:33;26.20;;;17.57;;
6388;SDS011;3227;42.654;23.360;2023-02-15T10:41:09;25.37;;;16.97;;
6388;SDS011;3227;42.654;23.360;2023-02-15T10:43:52;29.53;;;19.03;;
6388;SDS011;3227;42.654;23.360;2023-02-15T10:46:40;31.10;;;18.80;;
6388;SDS011;3227;42.654;23.360;2023-02-15T10:49:26;26.97;;;17.50;;
6388;SDS011;3227;42.654;23.360;2023-02-15T10:52:08;29.40;;;17.87;;
6388;SDS011;3227;42.654;23.360;2023-02-15T10:54:45;26.07;;;18.20;;
6388;SDS011;3227;42.654;23.360;2023-02-15T10:57:22;27.87;;;18.93;;
6388;SDS011;3227;42.654;23.360;2023-02-15T11:00:05;25.47;;;16.50;;
6388;SDS011;3227;42.654;23.360;2023-02-15T11:02:42;29.10;;;17.60;;
6388;SDS011;3227;42.654;23.360;2023-02-15T11:05:23;28.40;;;18.07;;
6388;SDS011;3227;42.654;23.360;2023-02-15T11:07:58;25.27;;;18.00;;
6388;SDS011;3227;42.654;23.360;2023-02-15T11:10:30;25.43;;;18.77;;
6388;SDS011;3227;42.654;23.360;2023-02-15T11:13:02;26.93;;;17.70;;
6388;SDS011;3227;42.654;23.360;2023-02-15T11:15:34;27.90;;;18.60;;
6388;SDS011;3227;42.654;23.360;2023-02-15T11:18:13;27.77;;;16.93;;
6388;SDS011;3227;42.654;23.360;2023-02-15T11:20:47;24.97;;;16.80;;
6388;SDS011;3227;42.654;23.360;2023-02-15T11:23:19;29.07;;;18.10;;
6388;SDS011;3227;42.654;23.360;2023-02-15T11:25:51;27.43;;;17.97;;
6388;SDS011;3227;42.654;23.360;2023-02-15T11:28:24;26.77;;;17.67;;
6388;SDS011;3227;42.654;23.360;2023-02-15T11:30:56;28.20;;;18.23;;
6388;SDS011;3227;42.654;23.360;2023-02-15T11:33:30;27.20;;;18.67;;
6388;SDS011;3227;42.654;23.360;2023-02-15T11:36:03;24.57;;;17.70;;
6388;SDS011;3227;42.654;23.360;2023-02-15T11:38:34;28.95;;;19.77;;
6388;SDS011;3227;42.654;23.360;2023-02-15T11:41:05;27.33;;;17.97;;
6388;SDS011;3227;42.654;23.360;2023-02-15T11:43:37;26.37;;;18.80;;
6388;SDS011;3227;42.654;23.360;2023-02-15T11:46:10;27.83;;;18.47;;
6388;SDS011;3227;42.654;23.360;2023-02-15T11:48:41;31.10;;;18.10;;
6388;SDS011;3227;42.654;23.360;2023-02-15T11:51:09;34.97;;;19.85;;
6388;SDS011;3227;42.654;23.360;2023-02-15T11:53:41;30.57;;;19.33;;
6388;SDS011;3227;42.654;23.360;2023-02-15T11:56:12;31.48;;;22.27;;
6388;SDS011;3227;42.654;23.360;2023-02-15T11:58:41;33.90;;;20.17;;
6388;SDS011;3227;42.654;23.360;2023-02-15T12:01:13;27.50;;;18.47;;
6388;SDS011;3227;42.654;23.360;2023-02-15T12:03:46;29.08;;;21.20;;
6388;SDS011;3227;42.654;23.360;2023-02-15T12:06:17;26.53;;;18.80;;
6388;SDS011;3227;42.654;23.360;2023-02-15T12:08:53;32.38;;;23.35;;
6388;SDS011;3227;42.654;23.360;2023-02-15T12:11:26;32.00;;;21.03;;
6388;SDS011;3227;42.654;23.360;2023-02-15T12:13:59;31.30;;;20.47;;
6388;SDS011;3227;42.654;23.360;2023-02-15T12:16:27;34.77;;;19.83;;
6388;SDS011;3227;42.654;23.360;2023-02-15T12:19:00;32.33;;;20.50;;
6388;SDS011;3227;42.654;23.360;2023-02-15T12:21:29;32.47;;;19.67;;
6388;SDS011;3227;42.654;23.360;2023-02-15T12:24:00;29.37;;;20.10;;
6388;SDS011;3227;42.654;23.360;2023-02-15T12:26:35;26.17;;;17.87;;
6388;SDS011;3227;42.654;23.360;2023-02-15T12:29:06;27.87;;;18.97;;
6388;SDS011;3227;42.654;23.360;2023-02-15T12:31:39;28.30;;;19.30;;
6388;SDS011;3227;42.654;23.360;2023-02-15T12:34:11;31.23;;;19.63;;
6388;SDS011;3227;42.654;23.360;2023-02-15T12:36:44;35.17;;;20.77;;
6388;SDS011;3227;42.654;23.360;2023-02-15T12:39:17;29.60;;;19.40;;
6388;SDS011;3227;42.654;23.360;2023-02-15T12:41:56;26.33;;;18.87;;
6388;SDS011;3227;42.654;23.360;2023-02-15T12:44:26;30.03;;;19.13;;
6388;SDS011;3227;42.654;23.360;2023-02-15T12:46:55;30.33;;;19.93;;
6388;SDS011;3227;42.654;23.360;2023-02-15T12:49:25;30.73;;;20.87;;
6388;SDS011;3227;42.654;23.360;2023-02-15T12:51:53;29.97;;;19.47;;
6388;SDS011;3227;42.654;23.360;2023-02-15T12:54:31;29.83;;;20.13;;
6388;SDS011;3227;42.654;23.360;2023-02-15T12:57:23;30.33;;;18.67;;
6388;SDS011;3227;42.654;23.360;2023-02-15T12:59:52;27.37;;;18.77;;
6388;SDS011;3227;42.654;23.360;2023-02-15T13:02:26;28.43;;;20.63;;
6388;SDS011;3227;42.654;23.360;2023-02-15T13:04:57;31.63;;;19.47;;
6388;SDS011;3227;42.654;23.360;2023-02-15T13:07:38;30.37;;;19.10;;
6388;SDS011;3227;42.654;23.360;2023-02-15T13:10:18;29.53;;;19.80;;
6388;SDS011;3227;42.654;23.360;2023-02-15T13:12:50;28.77;;;19.43;;
6388;SDS011;3227;42.654;23.360;2023-02-15T13:15:26;28.93;;;18.90;;
6388;SDS011;3227;42.654;23.360;2023-02-15T13:17:57;29.53;;;19.10;;
6388;SDS011;3227;42.654;23.360;2023-02-15T13:20:27;30.67;;;18.97;;
6388;SDS011;3227;42.654;23.360;2023-02-15T13:22:58;33.75;;;21.70;;
6388;SDS011;3227;42.654;23.360;2023-02-15T13:25:27;30.20;;;21.83;;
6388;SDS011;3227;42.654;23.360;2023-02-15T13:27:57;30.63;;;20.17;;
6388;SDS011;3227;42.654;23.360;2023-02-15T13:30:28;32.30;;;18.93;;
6388;SDS011;3227;42.654;23.360;2023-02-15T13:33:01;30.20;;;19.60;;
6388;SDS011;3227;42.654;23.360;2023-02-15T13:35:34;30.43;;;20.40;;
6388;SDS011;3227;42.654;23.360;2023-02-15T13:38:14;30.97;;;20.60;;
6388;SDS011;3227;42.654;23.360;2023-02-15T13:40:51;29.17;;;20.57;;
6388;SDS011;3227;42.654;23.360;2023-02-15T13:43:32;28.60;;;19.27;;
6388;SDS011;3227;42.654;23.360;2023-02-15T13:46:10;31.63;;;20.37;;
6388;SDS011;3227;42.654;23.360;2023-02-15T13:48:47;28.40;;;20.00;;
6388;SDS011;3227;42.654;23.360;2023-02-15T13:51:25;28.43;;;19.07;;
6388;SDS011;3227;42.654;23.360;2023-02-15T13:54:02;29.97;;;19.67;;
6388;SDS011;3227;42.654;23.360;2023-02-15T13:56:43;31.23;;;22.50;;
6388;SDS011;3227;42.654;23.360;2023-02-15T13:59:23;30.13;;;21.67;;
6388;SDS011;3227;42.654;23.360;2023-02-15T14:05:15;33.20;;;24.48;;
6388;SDS011;3227;42.654;23.360;2023-02-15T14:08:10;30.23;;;20.67;;
6388;SDS011;3227;42.654;23.360;2023-02-15T14:10:52;28.98;;;21.73;;
6388;SDS011;3227;42.654;23.360;2023-02-15T14:16:20;31.80;;;23.37;;
6388;SDS011;3227;42.654;23.360;2023-02-15T14:18:59;36.55;;;24.15;;
6388;SDS011;3227;42.654;23.360;2023-02-15T14:21:41;27.90;;;20.23;;
6388;SDS011;3227;42.654;23.360;2023-02-15T14:24:21;33.10;;;22.53;;
6388;SDS011;3227;42.654;23.360;2023-02-15T14:26:56;32.08;;;20.60;;
6388;SDS011;3227;42.654;23.360;2023-02-15T14:29:35;30.57;;;22.70;;
6388;SDS011;3227;42.654;23.360;2023-02-15T14:32:13;35.13;;;23.65;;
6388;SDS011;3227;42.654;23.360;2023-02-15T14:34:46;31.57;;;21.80;;
6388;SDS011;3227;42.654;23.360;2023-02-15T14:37:18;32.00;;;22.80;;
6388;SDS011;3227;42.654;23.360;2023-02-15T14:39:55;33.27;;;21.07;;
6388;SDS011;3227;42.654;23.360;2023-02-15T14:42:47;32.72;;;23.92;;
6388;SDS011;3227;42.654;23.360;2023-02-15T14:45:21;35.37;;;21.93;;
6388;SDS011;3227;42.654;23.360;2023-02-15T14:47:53;29.53;;;20.33;;
6388;SDS011;3227;42.654;23.360;2023-02-15T14:50:37;30.23;;;20.57;;
6388;SDS011;3227;42.654;23.360;2023-02-15T14:53:32;32.17;;;21.03;;
6388;SDS011;3227;42.654;23.360;2023-02-15T14:56:14;29.93;;;19.90;;
6388;SDS011;3227;42.654;23.360;2023-02-15T14:58:54;35.80;;;21.17;;
6388;SDS011;3227;42.654;23.360;2023-02-15T15:01:24;40.30;;;22.10;;
6388;SDS011;3227;42.654;23.360;2023-02-15T15:03:53;33.47;;;21.67;;
6388;SDS011;3227;42.654;23.360;2023-02-15T15:06:23;32.77;;;20.23;;
6388;SDS011;3227;42.654;23.360;2023-02-15T15:08:53;34.50;;;21.53;;
6388;SDS011;3227;42.654;23.360;2023-02-15T15:11:40;30.37;;;20.37;;
6388;SDS011;3227;42.654;23.360;2023-02-15T15:17:04;33.50;;;21.50;;